aviador You're here:

UKHH Decoded Metar

KHARKOV in UKRAINE
Report Time2018-06-23 12:00:00
UTC Time2018-06-23 12:13:41
Flight Rules mvfr MVFR
Wind140° at 16 kt
W.Decomp.*RWY 07: 7.5 kt HW 14.1 kt RCW
W.Rank140° ranks 22
Current wind is above 140° avg. (6.7)
Visibility9999 m
Phenomena:Vicinity thunderstorm
Clouds:Scattered 005 Hf
Expected CloudBase > 10,400 ft AGL from Temp-Dew spread
Ceiling2,000 ft
Temp33°C (ISA +19)
Dew Point07°C (20% RH)
Heat Index30.9°C
AAT26.5°C
QNH1006 hPa
Density Alt3,045 ft
Elevation509 ft
Report Wrong Elevation
Raw Report
UKHH 231200Z 14008MPS 9999 VCTS SCT///CB 33/07 Q1006 R07/0///72
TEMPO 17010G20MPS 0500 +TSRAGR SCT005 BKN020CB=

Extra information for UKHH:More info

Metar Taf Metar & Taf Last 4 Metars F.Rules Stats Wind Profile Meteogram Temp Stats Airport Information Weather charts Add Link Nearby VenuesMetar ALERT Operation Metar Decoded Social comments